Time;durP1;ratioP1;P1;durP2;ratioP2;P2;SDS_P1;SDS_P2;PMS_P1;PMS_P2;Temp;Humidity;BMP_temperature;BMP_pressure;BME280_temperature;BME280_humidity;BME280_pressure;Samples;Min_cycle;Max_cycle;Signal;HPM_P1;HPM_P2
2023/08/21 00:02:04;;;;;;;;;;;19.60;99.90;;;;;;12377505;28;20066;-82
2023/08/21 00:08:06;;;;;;;;;;;19.50;99.90;;;;;;12355077;28;19937;-83
2023/08/21 00:14:08;;;;;;;;;;;19.60;99.90;;;;;;12383376;28;19936;-82
2023/08/21 00:20:10;;;;;;;;;;;19.40;99.90;;;;;;12363724;28;19930;-82
2023/08/21 00:26:12;;;;;;;;;;;19.30;99.90;;;;;;12346153;28;20037;-83
2023/08/21 00:32:14;;;;;;;;;;;19.30;99.90;;;;;;12356509;28;19941;-82
2023/08/21 00:38:16;;;;;;;;;;;19.10;99.90;;;;;;12356137;28;19969;-83
2023/08/21 00:44:17;;;;;;;;;;;19.30;99.90;;;;;;12353557;28;20491;-82
2023/08/21 00:50:19;;;;;;;;;;;19.00;99.90;;;;;;12373297;28;19929;-83
2023/08/21 00:56:21;;;;;;;;;;;19.10;99.90;;;;;;12361049;28;19941;-84
2023/08/21 01:02:23;;;;;;;;;;;19.10;99.90;;;;;;12366653;28;19974;-84
2023/08/21 01:08:28;;;;;;;;;;;19.00;99.90;;;;;;12365626;28;20012;-84
2023/08/21 01:14:36;;;;;;;;;;;19.00;99.90;;;;;;12363078;28;19926;-83
2023/08/21 01:20:39;;;;;;;;;;;18.70;99.90;;;;;;12357068;28;19957;-84
2023/08/21 01:26:41;;;;;;;;;;;18.90;99.90;;;;;;12358305;28;19925;-84
2023/08/21 01:32:42;;;;;;;;;;;18.90;99.90;;;;;;12346892;28;19930;-84
2023/08/21 01:38:44;;;;;;;;;;;18.90;99.90;;;;;;12375811;28;19930;-84
2023/08/21 01:44:46;;;;;;;;;;;19.10;99.90;;;;;;12388222;28;19962;-84
2023/08/21 01:50:48;;;;;;;;;;;19.00;99.90;;;;;;12347848;28;19930;-83
2023/08/21 01:56:50;;;;;;;;;;;19.00;99.90;;;;;;12364426;28;19933;-84
2023/08/21 02:02:52;;;;;;;;;;;19.20;99.90;;;;;;12368734;28;20006;-84
2023/08/21 02:08:54;;;;;;;;;;;19.10;99.90;;;;;;12367854;28;19933;-83
2023/08/21 02:14:56;;;;;;;;;;;19.20;99.90;;;;;;12351728;28;20009;-83
2023/08/21 02:20:57;;;;;;;;;;;19.20;99.90;;;;;;12351129;28;19934;-84
2023/08/21 02:26:59;;;;;;;;;;;19.00;99.90;;;;;;12355583;28;19926;-83
2023/08/21 02:33:01;;;;;;;;;;;18.90;99.90;;;;;;12389547;28;19929;-84
2023/08/21 02:39:03;;;;;;;;;;;18.70;99.90;;;;;;12361598;28;19926;-84
2023/08/21 02:45:08;;;;;;;;;;;18.50;99.90;;;;;;12371217;28;19934;-84
2023/08/21 02:51:10;;;;;;;;;;;18.50;99.90;;;;;;12371743;28;19926;-84
2023/08/21 02:57:12;;;;;;;;;;;18.80;99.90;;;;;;12377119;28;19968;-83
2023/08/21 03:03:14;;;;;;;;;;;18.80;99.90;;;;;;12380044;28;20064;-84
2023/08/21 03:09:16;;;;;;;;;;;18.50;99.90;;;;;;12351046;28;20393;-83
2023/08/21 03:15:17;;;;;;;;;;;18.80;99.90;;;;;;12344504;28;20190;-84
2023/08/21 03:21:19;;;;;;;;;;;18.80;99.90;;;;;;12375189;28;19930;-82
2023/08/21 03:27:21;;;;;;;;;;;18.90;99.90;;;;;;12346456;28;19969;-83
2023/08/21 03:33:23;;;;;;;;;;;18.80;99.90;;;;;;12348149;28;19930;-83
2023/08/21 03:39:25;;;;;;;;;;;18.80;99.90;;;;;;12364197;28;19977;-83
2023/08/21 03:45:27;;;;;;;;;;;18.30;99.90;;;;;;12367120;28;19934;-83
2023/08/21 03:51:29;;;;;;;;;;;18.20;99.90;;;;;;12354338;28;19926;-83
2023/08/21 03:57:31;;;;;;;;;;;18.40;99.90;;;;;;12358707;28;20326;-83
2023/08/21 04:03:33;;;;;;;;;;;18.50;99.90;;;;;;12390139;28;19948;-83
2023/08/21 04:09:35;;;;;;;;;;;18.40;99.90;;;;;;12403912;28;19937;-82
2023/08/21 04:15:37;;;;;;;;;;;18.20;99.90;;;;;;12411915;28;19926;-82
2023/08/21 04:21:39;;;;;;;;;;;18.40;99.90;;;;;;12404361;28;19944;-82
2023/08/21 04:27:41;;;;;;;;;;;18.10;99.90;;;;;;12367533;28;19933;-84
2023/08/21 04:33:43;;;;;;;;;;;18.30;99.90;;;;;;12385547;28;20275;-84
2023/08/21 04:39:45;;;;;;;;;;;18.30;99.90;;;;;;12352565;28;19926;-84
2023/08/21 04:45:52;;;;;;;;;;;18.60;99.90;;;;;;12374145;28;19933;-85
2023/08/21 04:51:55;;;;;;;;;;;18.70;99.90;;;;;;12401170;28;19940;-85
2023/08/21 04:57:57;;;;;;;;;;;18.70;99.90;;;;;;12413370;28;19930;-84
2023/08/21 05:03:58;;;;;;;;;;;19.50;99.90;;;;;;12429601;28;20316;-85
2023/08/21 05:10:01;;;;;;;;;;;19.70;99.90;;;;;;12403099;28;20012;-85
2023/08/21 05:16:03;;;;;;;;;;;19.60;99.90;;;;;;12378780;28;19926;-84
2023/08/21 05:22:05;;;;;;;;;;;19.30;99.90;;;;;;12382933;28;19930;-85
2023/08/21 05:28:07;;;;;;;;;;;19.00;99.90;;;;;;12386152;28;19929;-84
2023/08/21 05:34:09;;;;;;;;;;;18.90;99.90;;;;;;12374025;28;19930;-84
2023/08/21 05:40:12;;;;;;;;;;;18.80;99.90;;;;;;12367926;28;19933;-83
2023/08/21 05:46:17;;;;;;;;;;;18.70;99.90;;;;;;12361487;28;20021;-82
2023/08/21 05:52:19;;;;;;;;;;;19.00;99.90;;;;;;12384958;28;20007;-82
2023/08/21 05:58:21;;;;;;;;;;;18.90;99.90;;;;;;12381898;28;19988;-82
2023/08/21 06:04:23;;;;;;;;;;;19.00;99.90;;;;;;12383427;28;19930;-82
2023/08/21 06:10:25;;;;;;;;;;;19.20;99.90;;;;;;12374758;28;19937;-82
2023/08/21 06:16:27;;;;;;;;;;;19.30;99.90;;;;;;12365877;28;19929;-82
2023/08/21 06:22:29;;;;;;;;;;;19.20;99.90;;;;;;12367221;28;20693;-83
2023/08/21 06:28:31;;;;;;;;;;;19.40;99.90;;;;;;12368242;28;19926;-82
2023/08/21 06:34:33;;;;;;;;;;;19.60;99.90;;;;;;12345920;28;19934;-82
2023/08/21 06:40:35;;;;;;;;;;;19.50;99.90;;;;;;12372430;28;19926;-82
2023/08/21 06:46:37;;;;;;;;;;;19.90;99.90;;;;;;12376883;28;19926;-83
2023/08/21 06:52:39;;;;;;;;;;;20.00;99.90;;;;;;12365987;28;19936;-83
2023/08/21 06:58:41;;;;;;;;;;;20.10;99.90;;;;;;12385155;28;19933;-83
2023/08/21 07:04:43;;;;;;;;;;;20.30;99.90;;;;;;12358773;28;19926;-83
2023/08/21 07:10:45;;;;;;;;;;;20.60;99.90;;;;;;12357113;28;19932;-83
2023/08/21 07:16:46;;;;;;;;;;;20.80;99.90;;;;;;12376419;28;20307;-83
2023/08/21 07:22:49;;;;;;;;;;;20.70;99.90;;;;;;12351684;28;20017;-83
2023/08/21 07:28:52;;;;;;;;;;;20.70;99.90;;;;;;12357000;28;20013;-83
2023/08/21 07:34:54;;;;;;;;;;;20.60;99.90;;;;;;12345514;28;19926;-84
2023/08/21 07:41:04;;;;;;;;;;;20.80;99.90;;;;;;12347153;28;19956;-83
2023/08/21 07:47:06;;;;;;;;;;;20.80;99.90;;;;;;12378721;28;19978;-84
2023/08/21 07:53:08;;;;;;;;;;;21.00;99.90;;;;;;12350066;28;19930;-84
2023/08/21 07:59:10;;;;;;;;;;;21.00;99.90;;;;;;12345127;28;19934;-83
2023/08/21 08:05:11;;;;;;;;;;;21.00;99.90;;;;;;12332676;28;20062;-82
2023/08/21 08:11:13;;;;;;;;;;;21.10;99.90;;;;;;12364268;28;20377;-83
2023/08/21 08:17:15;;;;;;;;;;;21.10;99.90;;;;;;12356570;28;19926;-82
2023/08/21 08:23:17;;;;;;;;;;;21.00;99.90;;;;;;12354005;28;19930;-82
2023/08/21 08:29:22;;;;;;;;;;;21.20;99.90;;;;;;12372721;28;19929;-83
2023/08/21 08:35:23;;;;;;;;;;;21.20;99.90;;;;;;12370466;28;19925;-83
2023/08/21 08:41:30;;;;;;;;;;;21.30;99.90;;;;;;12360698;28;19993;-83
2023/08/21 08:47:33;;;;;;;;;;;21.20;99.90;;;;;;12351974;28;19930;-83
2023/08/21 08:53:36;;;;;;;;;;;21.10;99.90;;;;;;12359107;28;20452;-83
2023/08/21 08:59:37;;;;;;;;;;;21.40;99.90;;;;;;12342377;28;20382;-83
2023/08/21 09:05:40;;;;;;;;;;;21.80;99.90;;;;;;12355924;28;20264;-84
2023/08/21 09:11:43;;;;;;;;;;;21.80;99.90;;;;;;12351475;28;19930;-82
2023/08/21 09:17:53;;;;;;;;;;;22.00;99.90;;;;;;12346990;28;19925;-83
2023/08/21 09:23:58;;;;;;;;;;;22.20;99.90;;;;;;12350580;28;20392;-83
2023/08/21 09:30:02;;;;;;;;;;;22.20;99.90;;;;;;12347707;28;20073;-83
2023/08/21 09:36:04;;;;;;;;;;;22.30;99.90;;;;;;12334183;28;19937;-83
2023/08/21 09:42:10;;;;;;;;;;;22.30;99.90;;;;;;12354763;28;19965;-83
2023/08/21 09:48:12;;;;;;;;;;;22.60;99.90;;;;;;12382127;28;20388;-82
2023/08/21 09:54:14;;;;;;;;;;;23.10;99.90;;;;;;12356699;28;19926;-83
2023/08/21 10:00:19;;;;;;;;;;;23.00;99.90;;;;;;12357328;28;20397;-83
2023/08/21 10:06:23;;;;;;;;;;;22.80;99.90;;;;;;12361548;28;20009;-83
2023/08/21 10:12:26;;;;;;;;;;;22.80;99.90;;;;;;12349987;28;20013;-83
2023/08/21 10:18:32;;;;;;;;;;;22.30;99.90;;;;;;12355325;28;19937;-83
2023/08/21 10:24:37;;;;;;;;;;;22.10;99.90;;;;;;12360218;28;19933;-83
2023/08/21 10:30:39;;;;;;;;;;;22.10;99.90;;;;;;12366449;28;19926;-83
2023/08/21 10:36:44;;;;;;;;;;;22.00;99.90;;;;;;12360178;28;19983;-83
2023/08/21 10:42:47;;;;;;;;;;;22.10;99.90;;;;;;12359332;28;20287;-83
2023/08/21 10:48:49;;;;;;;;;;;22.30;99.90;;;;;;12349884;28;19969;-83
2023/08/21 10:55:00;;;;;;;;;;;22.20;99.90;;;;;;12364876;28;20533;-84
2023/08/21 11:01:02;;;;;;;;;;;22.30;99.90;;;;;;12352344;28;19926;-83
2023/08/21 11:07:04;;;;;;;;;;;22.40;99.90;;;;;;12364813;28;19969;-83
2023/08/21 11:13:06;;;;;;;;;;;23.00;99.90;;;;;;12365870;28;19985;-83
2023/08/21 11:19:08;;;;;;;;;;;23.50;99.90;;;;;;12352059;28;19926;-83
2023/08/21 11:25:10;;;;;;;;;;;23.60;99.90;;;;;;12359090;28;20000;-83
2023/08/21 11:31:12;;;;;;;;;;;23.10;99.90;;;;;;12378884;28;19934;-86
2023/08/21 11:37:15;;;;;;;;;;;23.10;99.90;;;;;;12359538;28;19937;-85
2023/08/21 11:43:17;;;;;;;;;;;23.20;99.90;;;;;;12364934;28;19949;-85
2023/08/21 11:49:19;;;;;;;;;;;23.20;99.90;;;;;;12362296;28;19964;-85
2023/08/21 11:55:22;;;;;;;;;;;23.10;99.90;;;;;;12369480;28;19972;-84
2023/08/21 12:01:24;;;;;;;;;;;23.70;99.90;;;;;;12404731;28;19910;-86
2023/08/21 12:07:25;;;;;;;;;;;24.50;99.90;;;;;;12433869;28;19914;-84
2023/08/21 12:13:27;;;;;;;;;;;24.30;99.90;;;;;;12439837;28;19922;-84
2023/08/21 12:19:35;;;;;;;;;;;24.50;99.90;;;;;;12415607;28;19929;-85
2023/08/21 12:25:36;;;;;;;;;;;24.10;99.90;;;;;;12378147;28;19925;-85
2023/08/21 12:31:38;;;;;;;;;;;24.10;99.90;;;;;;12371687;28;20440;-84
2023/08/21 12:37:40;;;;;;;;;;;24.80;99.90;;;;;;12359370;28;19995;-85
2023/08/21 12:43:42;;;;;;;;;;;24.80;99.90;;;;;;12345969;28;19948;-85
2023/08/21 12:49:44;;;;;;;;;;;24.50;99.90;;;;;;12349852;28;19926;-85
2023/08/21 12:55:46;;;;;;;;;;;24.10;99.90;;;;;;12359130;28;19933;-85
2023/08/21 13:01:48;;;;;;;;;;;24.20;99.90;;;;;;12350239;28;19934;-85
2023/08/21 13:07:52;;;;;;;;;;;24.40;99.90;;;;;;12371171;28;19973;-85
2023/08/21 13:13:54;;;;;;;;;;;24.10;99.90;;;;;;12377770;28;20013;-84
2023/08/21 13:19:56;;;;;;;;;;;24.60;99.90;;;;;;12358178;28;19930;-85
2023/08/21 13:25:58;;;;;;;;;;;24.50;99.90;;;;;;12331504;28;19973;-85
2023/08/21 13:32:00;;;;;;;;;;;24.30;99.90;;;;;;12384544;28;19932;-85
2023/08/21 13:38:03;;;;;;;;;;;24.40;99.90;;;;;;12354325;28;20016;-85
2023/08/21 13:44:05;;;;;;;;;;;24.50;99.90;;;;;;12376941;28;19972;-84
2023/08/21 13:50:10;;;;;;;;;;;24.20;99.90;;;;;;12360565;28;20092;-83
2023/08/21 13:56:12;;;;;;;;;;;23.90;99.90;;;;;;12361439;28;19957;-83
2023/08/21 14:02:14;;;;;;;;;;;23.90;99.90;;;;;;12358916;28;20041;-84
2023/08/21 14:08:16;;;;;;;;;;;24.50;99.90;;;;;;12356722;28;20329;-83
2023/08/21 14:14:17;;;;;;;;;;;24.40;99.90;;;;;;12360948;28;19925;-83
2023/08/21 14:20:19;;;;;;;;;;;24.70;99.90;;;;;;12372846;28;19933;-83
2023/08/21 14:26:21;;;;;;;;;;;24.50;99.90;;;;;;12362416;28;20888;-83
2023/08/21 14:32:23;;;;;;;;;;;24.40;99.90;;;;;;12361566;28;20386;-83
2023/08/21 14:38:25;;;;;;;;;;;24.60;99.90;;;;;;12349554;28;19973;-83
2023/08/21 14:44:27;;;;;;;;;;;24.40;99.90;;;;;;12380504;28;19937;-84
2023/08/21 14:50:28;;;;;;;;;;;24.50;99.90;;;;;;12370280;28;19972;-83
2023/08/21 14:56:33;;;;;;;;;;;24.40;99.90;;;;;;12359553;28;20072;-83
2023/08/21 15:02:34;;;;;;;;;;;24.20;99.90;;;;;;12354586;28;19932;-83
2023/08/21 15:08:38;;;;;;;;;;;24.30;99.90;;;;;;12380757;28;19926;-84
2023/08/21 15:14:40;;;;;;;;;;;24.30;99.90;;;;;;12354487;28;19957;-83
2023/08/21 15:20:42;;;;;;;;;;;24.20;99.90;;;;;;12364502;28;19930;-84
2023/08/21 15:26:44;;;;;;;;;;;24.00;99.90;;;;;;12405674;28;20001;-85
2023/08/21 15:32:47;;;;;;;;;;;24.00;99.90;;;;;;12408475;28;19932;-84
2023/08/21 15:38:49;;;;;;;;;;;23.80;99.90;;;;;;12394305;28;19926;-84
2023/08/21 15:44:51;;;;;;;;;;;23.80;99.90;;;;;;12399431;28;20282;-84
2023/08/21 15:50:53;;;;;;;;;;;23.90;99.90;;;;;;12395708;28;19937;-84
2023/08/21 15:56:54;;;;;;;;;;;24.10;99.90;;;;;;12370184;28;20329;-84
2023/08/21 16:02:56;;;;;;;;;;;24.20;99.90;;;;;;12374219;28;19926;-83
2023/08/21 16:08:58;;;;;;;;;;;24.50;99.90;;;;;;12378008;28;19926;-83
2023/08/21 16:15:00;;;;;;;;;;;24.40;99.90;;;;;;12360430;28;19933;-83
2023/08/21 16:21:02;;;;;;;;;;;24.50;99.90;;;;;;12354490;28;19930;-84
2023/08/21 16:27:04;;;;;;;;;;;24.30;99.90;;;;;;12371610;28;20373;-83
2023/08/21 16:33:06;;;;;;;;;;;24.20;99.90;;;;;;12367388;28;19926;-83
2023/08/21 16:39:08;;;;;;;;;;;24.60;99.90;;;;;;12338685;28;20383;-84
2023/08/21 16:45:12;;;;;;;;;;;24.80;99.90;;;;;;12347421;28;19930;-83
2023/08/21 16:51:14;;;;;;;;;;;25.00;99.90;;;;;;12367030;28;19932;-84
2023/08/21 16:57:16;;;;;;;;;;;25.00;99.90;;;;;;12347392;28;19925;-83
2023/08/21 17:03:17;;;;;;;;;;;24.90;99.90;;;;;;12363491;28;19934;-84
2023/08/21 17:09:19;;;;;;;;;;;24.70;99.90;;;;;;12363037;28;20425;-84
2023/08/21 17:15:21;;;;;;;;;;;24.20;99.90;;;;;;12366840;28;19933;-83
2023/08/21 17:21:23;;;;;;;;;;;24.00;99.90;;;;;;12363423;28;19930;-84
2023/08/21 17:27:25;;;;;;;;;;;23.90;99.90;;;;;;12350124;28;19930;-84
2023/08/21 17:33:27;;;;;;;;;;;23.70;99.90;;;;;;12360741;28;19929;-84
2023/08/21 17:39:29;;;;;;;;;;;23.60;99.90;;;;;;12354943;28;19940;-84
2023/08/21 17:45:33;;;;;;;;;;;23.80;99.90;;;;;;12351209;28;19957;-84
2023/08/21 17:51:42;;;;;;;;;;;23.60;99.90;;;;;;12365002;28;19926;-84
2023/08/21 17:57:52;;;;;;;;;;;23.20;99.90;;;;;;12366748;28;19925;-84
2023/08/21 18:03:54;;;;;;;;;;;23.20;99.90;;;;;;12363817;28;19933;-84
2023/08/21 18:09:56;;;;;;;;;;;23.20;99.90;;;;;;12334710;28;20383;-84
2023/08/21 18:15:58;;;;;;;;;;;23.00;99.90;;;;;;12354842;28;20267;-84
2023/08/21 18:22:03;;;;;;;;;;;22.90;99.90;;;;;;12371461;28;19926;-84
2023/08/21 18:28:05;;;;;;;;;;;22.90;99.90;;;;;;12317827;28;19950;-83
2023/08/21 18:34:09;;;;;;;;;;;22.80;99.90;;;;;;12290894;28;20366;-84
2023/08/21 18:40:11;;;;;;;;;;;22.70;99.90;;;;;;12287017;28;20388;-85
2023/08/21 18:46:14;;;;;;;;;;;22.40;99.90;;;;;;12279711;28;19962;-84
2023/08/21 18:52:16;;;;;;;;;;;22.30;99.90;;;;;;12270814;28;19927;-85
2023/08/21 18:58:18;;;;;;;;;;;22.00;99.90;;;;;;12301021;28;20342;-85
2023/08/21 19:04:20;;;;;;;;;;;21.80;99.90;;;;;;12280787;28;19926;-84
2023/08/21 19:10:23;;;;;;;;;;;21.50;99.90;;;;;;12274922;28;20367;-84
2023/08/21 19:16:25;;;;;;;;;;;21.50;99.90;;;;;;12290208;28;19927;-85
2023/08/21 19:22:27;;;;;;;;;;;21.50;99.90;;;;;;12288139;28;19977;-84
2023/08/21 19:28:29;;;;;;;;;;;21.60;99.90;;;;;;12350484;28;19965;-84
2023/08/21 19:34:31;;;;;;;;;;;21.60;99.90;;;;;;12390834;28;19940;-85
2023/08/21 19:40:37;;;;;;;;;;;21.60;99.90;;;;;;12360091;28;19981;-85
2023/08/21 19:46:40;;;;;;;;;;;21.60;99.90;;;;;;12356505;28;19927;-83
2023/08/21 19:52:41;;;;;;;;;;;21.40;99.90;;;;;;12353982;28;19956;-84
2023/08/21 19:58:43;;;;;;;;;;;21.00;99.90;;;;;;12348089;28;20401;-84
2023/08/21 20:04:51;;;;;;;;;;;20.70;99.90;;;;;;12361811;28;20664;-83
2023/08/21 20:10:53;;;;;;;;;;;20.60;99.90;;;;;;12363342;28;19930;-84
2023/08/21 20:16:55;;;;;;;;;;;20.70;99.90;;;;;;12350504;28;19933;-83
2023/08/21 20:22:57;;;;;;;;;;;20.70;99.90;;;;;;12356820;28;19929;-83
2023/08/21 20:29:01;;;;;;;;;;;20.50;99.90;;;;;;12360551;28;19933;-83
2023/08/21 20:35:04;;;;;;;;;;;20.40;99.90;;;;;;12358107;28;19931;-83
2023/08/21 20:41:07;;;;;;;;;;;20.40;99.90;;;;;;12356305;28;19929;-83
2023/08/21 20:47:09;;;;;;;;;;;20.30;99.90;;;;;;12351430;28;20081;-83
2023/08/21 20:53:11;;;;;;;;;;;20.40;99.90;;;;;;12352577;28;19933;-84
2023/08/21 20:59:13;;;;;;;;;;;20.40;99.90;;;;;;12348484;28;19945;-84
2023/08/21 21:05:15;;;;;;;;;;;20.50;99.90;;;;;;12363360;28;19960;-84
2023/08/21 21:11:17;;;;;;;;;;;20.20;99.90;;;;;;12344010;28;19933;-84
2023/08/21 21:17:19;;;;;;;;;;;20.30;99.90;;;;;;12374597;28;20374;-84
2023/08/21 21:23:21;;;;;;;;;;;20.30;99.90;;;;;;12366882;28;19926;-83
2023/08/21 21:29:23;;;;;;;;;;;20.00;99.90;;;;;;12336857;28;20089;-84
2023/08/21 21:35:25;;;;;;;;;;;20.10;99.90;;;;;;12336272;28;20318;-84
2023/08/21 21:41:27;;;;;;;;;;;20.10;99.90;;;;;;12334428;28;19966;-84
2023/08/21 21:47:29;;;;;;;;;;;20.00;99.90;;;;;;12369167;28;19964;-84
2023/08/21 21:53:31;;;;;;;;;;;19.80;99.90;;;;;;12371182;28;19976;-84
2023/08/21 21:59:33;;;;;;;;;;;19.80;99.90;;;;;;12360965;28;19987;-84
2023/08/21 22:05:35;;;;;;;;;;;19.50;99.90;;;;;;12363476;28;19961;-84
2023/08/21 22:11:37;;;;;;;;;;;19.60;99.90;;;;;;12362609;28;20286;-84
2023/08/21 22:17:39;;;;;;;;;;;19.70;99.90;;;;;;12372068;28;19933;-83
2023/08/21 22:23:41;;;;;;;;;;;19.30;99.90;;;;;;12359849;28;19925;-84
2023/08/21 22:29:43;;;;;;;;;;;19.50;99.90;;;;;;12378141;28;19934;-84
2023/08/21 22:35:46;;;;;;;;;;;19.40;99.90;;;;;;12351131;28;19933;-84
2023/08/21 22:41:48;;;;;;;;;;;19.40;99.90;;;;;;12350553;28;19926;-83
2023/08/21 22:47:50;;;;;;;;;;;19.30;99.90;;;;;;12366237;28;19930;-83
2023/08/21 22:53:52;;;;;;;;;;;19.20;99.90;;;;;;12355067;28;19933;-84
2023/08/21 22:59:54;;;;;;;;;;;19.20;99.90;;;;;;12381788;28;19984;-84
2023/08/21 23:05:56;;;;;;;;;;;19.40;99.90;;;;;;12363889;28;20301;-84
2023/08/21 23:11:58;;;;;;;;;;;19.50;99.90;;;;;;12367714;28;19968;-83
2023/08/21 23:18:00;;;;;;;;;;;19.50;99.90;;;;;;12369080;28;19933;-83
2023/08/21 23:24:03;;;;;;;;;;;19.40;99.90;;;;;;12356657;28;19934;-83
2023/08/21 23:30:05;;;;;;;;;;;19.40;99.90;;;;;;12371117;28;19926;-83
2023/08/21 23:36:07;;;;;;;;;;;19.30;99.90;;;;;;12352467;28;20341;-83
2023/08/21 23:42:09;;;;;;;;;;;19.20;99.90;;;;;;12360129;28;19926;-83
2023/08/21 23:48:11;;;;;;;;;;;18.70;99.90;;;;;;12358868;28;20012;-83
2023/08/21 23:54:13;;;;;;;;;;;18.80;99.90;;;;;;12355593;28;19933;-83
